首页
METAR-TAF:

METAR-TAF

机场 :

大特克島, 特克斯和凯科斯群岛

纬度: 21-26-40N, 经度: 071-08-32W, 海拔: 4米

当前天气观测

该预报发布于12小时和34分钟前的20:00 UTC
风速6节,风向
温度 32°C
湿度 71%
气压 1016 hPa
能见度10公里或以上
散云层高于1200英尺
散云层高于4000英尺

METAR: MBGT 152000Z 09006KT 9999 SCT012 SCT040 32/26 Q1016

时间: 04:34 (08:34 UTC)

预报

该预报发布于3小时和34分钟前的05:00 UTC
预报有效从16日的 06点(UTC)到 17日的 06点(UTC)
风速10节,风向东转东北
能见度10公里或以上
少量云层高于1800英尺
散云层高于15000英尺
多云层高于22000英尺
附近有阵雨,

TAF: MBGT 160500Z 1606/1706 06010KT 9999 VCSH FEW018 SCT150 BKN220

超过4000个机场的气象观测和天气预报(METAR&TAF报告)。

可查询的气象台以黄色和红色小点在地图上表示。

将鼠标移到小点上方,可查看气象台名称。

然后点击查看天气观测和预报。

如需切换地图:点击带黑十字的绿色按钮放大地图;点击带横线的绿色按钮缩小地图;或者点击绿色箭头查看邻近地区的地图。


METAR-TAF: